Aérodrome :
LOGIN :

S'inscrire | Disclaimer

   EN    FR    IT 

 










Légende :    VFR   VFR Marginal   IFR   IFR Intensif   IFR Très Intensif
Visi : 
Plafond : 
>= 8 km
>= 3000ft
5 à 8 km
1000 à 3000 ft
1500m à 5 km
500 à 1000 ft
800 à 1500m
200 à 500 ft
< 800m
< 200 ft
Symboles :   Orages  Brouillard  Fortes neiges  Fortes précipitations  Vent > 20 kt
SIGMETs :   Divers  Orages  Givrage  Turbulence  Onde Orograph.  Cendres Volcan.







- Altitude de l'aérodrome : 1161 ft
- Code IATA : RJL


LELO - Logroño-Agoncillo

DERNIER METAR :
  • 190230Z AUTO 00000KT 9999 NCD 02/01 Q1021

METARs EXPIRÉS :
  • 190200Z AUTO 22001KT 9999 NCD 02/01 Q1021
  • 190130Z AUTO VRB01KT 9000 NCD 02/01 Q1021
  • 190100Z AUTO VRB02KT 9999 NCD 03/01 Q1021
  • 190030Z AUTO 25002KT 9999 NCD 03/01 Q1020
  • 190000Z AUTO 22002KT 9999 NCD 03/01 Q1020

TAF TAF LELO
Valide du 19 à 03h jusqu'au 19 à 12h UTC


190200Z 1903/1912 VRB05KT 9999 SCT030
Pas de NOTAMs connus pour ce terrain.
3 SIGMETs publiés pour la FIR Madrid (LECM) :
 
Turbulence forte
LECM SIGMET 9 VALID 190000/190400 LEVA
LECM MADRID FIR/UIR SEV TURB FCST WI N4433 W00548 - N4156 W00746 - N4130 W00623 - N4001 W00657 - N40 W00527 - N4342 W00212 - N4433 W00548 FL180/300 MOV E 20KT NC=
Turbulence forte
LECM SIGMET 10 VALID 190000/190400 LEVA
LECM MADRID FIR/UIR SEV TURB FCST WI N3959 W00652 - N3959 W00523 - N3554 W00631 - N3553 W00726 - N3959 W00652 FL180/300 MOV E 20KT NC=
Turbulence forte
LECM SIGMET 1 VALID 190400/190800 LEVA
LECM MADRID FIR/UIR SEV TURB FCST WI N4410 W00339 - N4002 W00653 - N3708 W00723 - N3626 W00625 - N4326 W00143 - N4410 W00339 FL180/300 MOV E 20KT NC=



MET'MAP, la Météo Aéronautique d'un coup d'oeil ! - Copyright ORBIFLY Décembre 2007 - Disclaimer

ORBIFLY MET'MAP TEAM :

Programmation & Développement : Alexandra Zaïnal
Conception & Développement : Baudouin d'Aumeries
Co-Programmation & Développement : Marc-Olivier Méhu
Soutien technique & logistique : Manuel Goepfert

Contact : metmap@orbifly.com




SOURCES & CREDITS :

   NOAA